Elmira Corning Regional Airport
KELM : now visible

Airfield :











YOU CAN JOIN US ON...

 
LOGIN :

Register | Disclaimer

   EN    FR    IT 

 









Legend :    VFR   Marginal VFR   IFR   Intensive IFR   Very Intensive IFR
Visi :
Ceiling :
>= 8 km
>= 3000ft
5 to 8 km
1000 to 3000 ft
1500m to 5 km
500 to 1000 ft
800 to 1500m
200 to 500 ft
< 800m
< 200 ft
Symbols :   Thunderstorms  Fog  Heavy snow  Heavy precipitations  Wind > 20 kt






- Airport Elevation : 954 ft
- IATA code : ELM


KELM - Elmira Corning Regional

CURRENT METAR :
  • 181053Z 06005KT 10SM OVC095 M09/M13 A3047 RMK AO2 SLP337 T10941133

EXPIRED METARs :
  • 180953Z AUTO 12003KT 10SM OVC100 M09/M13 A3054 RMK AO2 SLP360 T10941133
  • 180853Z AUTO 00000KT 10SM CLR M10/M13 A3057 RMK AO2 SLP369 T11001133 58021

TAF KELM
Valid from the 18 at 12:00 until the 19 at 12:00 UTC


181138Z 1812/1912 14005KT P6SM OVC100
FM181400 16011G20KT 1 1/2SM -SN BLSN OVC025
FM182100 18015G26KT 2SM -PL BLSN OVC015 WS020/18045KT
FM190000 19014KT 4SM -SHSN BLSN OVC015



MET'MAP, your aeronautical weather chart ! - Copyright ORBIFLY December 2007 - Disclaimer

ORBIFLY MET'MAP TEAM :

Programming & Development : Alexandra Zaïnal
Concept & original design : Baudouin d'Aumeries
Assistance for programming : Marc-Olivier Méhu
Technical & hardware support : Manuel Goepfert

Contact : metmap@orbifly.com




SOURCES & CREDITS :

   NOAA       Earth
Advisory